Time;durP1;ratioP1;P1;durP2;ratioP2;P2;SDS_P1;SDS_P2;PMS_P1;PMS_P2;Temp;Humidity;BMP_temperature;BMP_pressure;BME280_temperature;BME280_humidity;BME280_pressure;Samples;Min_cycle;Max_cycle;Signal;HPM_P1;HPM_P2
2022/03/25 00:01:03;;;;;;;105.43;68.13;;;;;;;;;;5031593;28;20426;-81
2022/03/25 00:03:29;;;;;;;111.63;67.55;;;;;;;;;;5031815;28;20421;-80
2022/03/25 00:05:56;;;;;;;107.68;66.05;;;;;;;;;;5029245;28;20416;-81
2022/03/25 00:08:23;;;;;;;108.05;65.70;;;;;;;;;;5029221;28;20883;-80
2022/03/25 00:10:49;;;;;;;110.82;67.13;;;;;;;;;;5031311;28;20970;-81
2022/03/25 00:13:15;;;;;;;114.53;70.10;;;;;;;;;;5027810;28;20434;-81
2022/03/25 00:15:42;;;;;;;106.78;66.88;;;;;;;;;;5033641;28;20426;-81
2022/03/25 00:18:08;;;;;;;109.57;66.27;;;;;;;;;;5032054;28;20421;-81
2022/03/25 00:20:34;;;;;;;108.78;65.88;;;;;;;;;;5030282;28;20856;-80
2022/03/25 00:23:02;;;;;;;114.70;66.70;;;;;;;;;;5033065;28;20411;-80
2022/03/25 00:25:29;;;;;;;108.63;66.22;;;;;;;;;;5031587;28;20451;-81
2022/03/25 00:27:56;;;;;;;116.25;67.63;;;;;;;;;;5031676;28;20496;-80
2022/03/25 00:30:22;;;;;;;111.15;68.10;;;;;;;;;;5029858;28;20430;-81
2022/03/25 00:32:48;;;;;;;112.30;68.53;;;;;;;;;;5032015;28;20430;-81
2022/03/25 00:35:16;;;;;;;112.80;66.87;;;;;;;;;;5031882;28;21034;-82
2022/03/25 00:37:42;;;;;;;109.53;66.85;;;;;;;;;;5032518;28;20436;-81
2022/03/25 00:40:11;;;;;;;107.82;66.32;;;;;;;;;;5032301;28;20439;-81
2022/03/25 00:42:37;;;;;;;109.47;66.97;;;;;;;;;;5030313;28;20422;-83
2022/03/25 00:45:05;;;;;;;111.03;66.07;;;;;;;;;;5033071;28;20433;-81
2022/03/25 00:47:31;;;;;;;104.95;65.95;;;;;;;;;;5029985;28;20892;-81
2022/03/25 00:49:57;;;;;;;108.13;65.95;;;;;;;;;;5030145;28;20450;-81
2022/03/25 00:52:24;;;;;;;105.03;63.23;;;;;;;;;;5032361;28;20506;-81
2022/03/25 00:54:51;;;;;;;107.43;64.90;;;;;;;;;;5029642;28;20438;-80
2022/03/25 00:57:19;;;;;;;116.20;69.15;;;;;;;;;;5028122;28;20508;-81
2022/03/25 00:59:45;;;;;;;106.55;66.07;;;;;;;;;;5026096;28;20977;-81
2022/03/25 01:02:12;;;;;;;118.85;70.93;;;;;;;;;;5025010;28;20427;-80
2022/03/25 01:04:38;;;;;;;112.22;66.60;;;;;;;;;;5028444;28;20427;-80
2022/03/25 01:07:04;;;;;;;108.07;64.25;;;;;;;;;;5026775;28;20431;-81
2022/03/25 01:09:31;;;;;;;108.63;66.30;;;;;;;;;;5023964;28;20450;-81
2022/03/25 01:11:57;;;;;;;103.30;65.27;;;;;;;;;;5025420;28;20404;-81
2022/03/25 01:14:25;;;;;;;103.18;63.10;;;;;;;;;;5028229;28;20428;-80
2022/03/25 01:16:51;;;;;;;102.88;62.08;;;;;;;;;;5026134;28;20407;-80
2022/03/25 01:19:17;;;;;;;106.40;64.83;;;;;;;;;;5024043;28;20458;-80
2022/03/25 01:21:43;;;;;;;106.20;64.03;;;;;;;;;;5029285;28;20512;-80
2022/03/25 01:24:09;;;;;;;110.93;66.90;;;;;;;;;;5030995;28;20433;-81
2022/03/25 01:26:36;;;;;;;104.50;64.40;;;;;;;;;;5030952;28;20434;-80
2022/03/25 01:29:02;;;;;;;105.82;65.35;;;;;;;;;;5028097;28;20430;-80
2022/03/25 01:31:30;;;;;;;107.32;63.45;;;;;;;;;;5034625;28;20440;-79
2022/03/25 01:33:56;;;;;;;103.85;61.40;;;;;;;;;;5031537;28;20464;-80
2022/03/25 01:36:23;;;;;;;104.72;63.88;;;;;;;;;;5033572;28;20436;-81
2022/03/25 01:38:49;;;;;;;104.88;64.15;;;;;;;;;;5033927;28;20789;-79
2022/03/25 01:41:16;;;;;;;103.88;60.78;;;;;;;;;;5035738;28;21032;-80
2022/03/25 01:43:43;;;;;;;100.65;60.75;;;;;;;;;;5034089;28;20459;-80
2022/03/25 01:46:10;;;;;;;104.95;63.03;;;;;;;;;;5035376;28;20460;-80
2022/03/25 01:48:37;;;;;;;110.05;63.85;;;;;;;;;;5033473;28;20433;-80
2022/03/25 01:51:03;;;;;;;109.93;66.75;;;;;;;;;;5032398;28;20680;-80
2022/03/25 01:53:30;;;;;;;112.63;67.03;;;;;;;;;;5032591;28;20593;-80
2022/03/25 01:55:57;;;;;;;111.30;67.53;;;;;;;;;;5034027;28;20487;-80
2022/03/25 01:58:23;;;;;;;107.72;65.93;;;;;;;;;;5032735;28;20430;-80
2022/03/25 02:00:50;;;;;;;109.72;64.47;;;;;;;;;;5032182;28;20435;-80
2022/03/25 02:03:17;;;;;;;110.95;67.18;;;;;;;;;;5032309;28;20433;-80
2022/03/25 02:05:45;;;;;;;107.07;64.05;;;;;;;;;;5033306;28;20448;-79
2022/03/25 02:08:11;;;;;;;105.80;63.35;;;;;;;;;;5027064;28;20435;-80
2022/03/25 02:10:38;;;;;;;108.35;63.03;;;;;;;;;;5032197;28;20453;-80
2022/03/25 02:13:04;;;;;;;114.53;64.65;;;;;;;;;;5031993;28;20427;-80
2022/03/25 02:15:31;;;;;;;111.13;64.47;;;;;;;;;;5030620;28;20430;-81
2022/03/25 02:17:57;;;;;;;106.25;62.72;;;;;;;;;;5029770;28;20487;-80
2022/03/25 02:20:24;;;;;;;108.30;65.27;;;;;;;;;;5031216;28;20415;-80
2022/03/25 02:22:51;;;;;;;111.20;63.15;;;;;;;;;;5031374;28;20410;-80
2022/03/25 02:25:20;;;;;;;106.75;62.13;;;;;;;;;;5030139;28;20443;-80
2022/03/25 02:27:47;;;;;;;102.45;61.78;;;;;;;;;;5030009;28;21418;-80
2022/03/25 02:30:14;;;;;;;104.10;61.40;;;;;;;;;;5029805;28;20463;-79
2022/03/25 02:32:40;;;;;;;107.45;64.07;;;;;;;;;;5054436;22;21822;-82
2022/03/25 02:35:07;;;;;;;111.03;64.50;;;;;;;;;;5058937;28;20479;-80
2022/03/25 02:37:34;;;;;;;101.90;60.75;;;;;;;;;;5057687;28;20429;-82
2022/03/25 02:40:01;;;;;;;108.63;62.83;;;;;;;;;;5056486;28;20514;-80
2022/03/25 02:42:27;;;;;;;120.60;68.00;;;;;;;;;;5046940;28;20423;-82
2022/03/25 02:44:54;;;;;;;114.47;69.45;;;;;;;;;;5039212;28;20431;-82
2022/03/25 02:47:20;;;;;;;109.60;65.35;;;;;;;;;;5035383;28;20481;-80
2022/03/25 02:49:47;;;;;;;113.15;65.18;;;;;;;;;;5037579;28;20911;-82
2022/03/25 02:52:13;;;;;;;112.10;65.53;;;;;;;;;;5035873;28;20446;-80
2022/03/25 02:54:39;;;;;;;109.13;64.32;;;;;;;;;;5038875;28;20452;-81
2022/03/25 02:57:07;;;;;;;108.45;63.90;;;;;;;;;;5038013;28;20419;-82
2022/03/25 02:59:33;;;;;;;110.90;64.77;;;;;;;;;;5034036;28;20475;-82
2022/03/25 03:01:59;;;;;;;99.78;59.83;;;;;;;;;;5032698;28;20892;-81
2022/03/25 03:04:27;;;;;;;113.32;65.35;;;;;;;;;;5038366;28;20426;-82
2022/03/25 03:06:53;;;;;;;103.57;61.95;;;;;;;;;;5037229;28;21170;-80
2022/03/25 03:09:19;;;;;;;102.05;62.42;;;;;;;;;;5036221;28;20433;-81
2022/03/25 03:11:46;;;;;;;109.18;63.20;;;;;;;;;;5036384;28;20797;-83
2022/03/25 03:14:13;;;;;;;119.40;69.65;;;;;;;;;;5037064;28;20863;-83
2022/03/25 03:16:40;;;;;;;117.07;67.53;;;;;;;;;;5037663;28;20445;-82
2022/03/25 03:19:07;;;;;;;107.65;65.63;;;;;;;;;;5033669;28;20439;-81
2022/03/25 03:21:34;;;;;;;114.20;67.82;;;;;;;;;;5037735;28;20542;-82
2022/03/25 03:24:00;;;;;;;113.47;67.60;;;;;;;;;;5037002;28;20515;-81
2022/03/25 03:26:26;;;;;;;109.70;63.20;;;;;;;;;;5036092;28;20460;-82
2022/03/25 03:28:53;;;;;;;104.85;64.03;;;;;;;;;;5034740;28;20430;-82
2022/03/25 03:31:21;;;;;;;108.15;65.38;;;;;;;;;;5036928;28;20470;-82
2022/03/25 03:33:47;;;;;;;114.90;65.53;;;;;;;;;;5034813;28;20878;-80
2022/03/25 03:36:13;;;;;;;103.07;61.83;;;;;;;;;;5038609;28;20439;-82
2022/03/25 03:38:40;;;;;;;112.57;66.65;;;;;;;;;;5037037;28;20429;-83
2022/03/25 03:41:06;;;;;;;115.35;64.93;;;;;;;;;;5039418;28;20441;-81
2022/03/25 03:43:32;;;;;;;113.00;66.83;;;;;;;;;;5037497;28;20550;-82
2022/03/25 03:45:58;;;;;;;113.93;66.38;;;;;;;;;;5038729;28;20483;-82
2022/03/25 03:48:26;;;;;;;114.30;66.27;;;;;;;;;;5036462;28;20473;-80
2022/03/25 03:50:52;;;;;;;110.13;63.40;;;;;;;;;;5035107;28;20461;-81
2022/03/25 03:53:18;;;;;;;119.10;69.22;;;;;;;;;;5036482;28;20422;-82
2022/03/25 03:55:44;;;;;;;118.22;68.13;;;;;;;;;;5038122;28;20455;-81
2022/03/25 03:58:11;;;;;;;118.20;67.55;;;;;;;;;;5035807;28;20492;-81
2022/03/25 04:00:37;;;;;;;112.23;64.77;;;;;;;;;;5037763;28;20542;-83
2022/03/25 04:03:03;;;;;;;106.55;62.70;;;;;;;;;;5033930;28;20485;-82
2022/03/25 04:05:31;;;;;;;108.65;62.75;;;;;;;;;;5036596;28;20484;-82
2022/03/25 04:07:57;;;;;;;104.07;63.63;;;;;;;;;;5037262;28;20479;-82
2022/03/25 04:10:23;;;;;;;113.82;66.85;;;;;;;;;;5033546;28;20496;-82
2022/03/25 04:12:50;;;;;;;109.20;62.53;;;;;;;;;;5038617;28;20417;-81
2022/03/25 04:15:16;;;;;;;108.50;64.35;;;;;;;;;;5036034;28;20485;-83
2022/03/25 04:17:43;;;;;;;108.28;63.63;;;;;;;;;;5036707;28;20515;-84
2022/03/25 04:20:10;;;;;;;104.28;60.08;;;;;;;;;;5035758;28;20444;-83
2022/03/25 04:22:38;;;;;;;107.60;62.00;;;;;;;;;;5039252;28;20445;-82
2022/03/25 04:25:05;;;;;;;112.70;63.33;;;;;;;;;;5035447;28;20512;-82
2022/03/25 04:27:32;;;;;;;112.90;65.07;;;;;;;;;;5033968;28;20780;-82
2022/03/25 04:29:58;;;;;;;117.28;66.25;;;;;;;;;;5037678;28;20434;-82
2022/03/25 04:32:24;;;;;;;116.22;66.30;;;;;;;;;;5036605;28;20851;-83
2022/03/25 04:34:50;;;;;;;114.57;66.05;;;;;;;;;;5039670;28;20561;-83
2022/03/25 04:37:17;;;;;;;119.38;66.57;;;;;;;;;;5037381;28;21315;-81
2022/03/25 04:39:44;;;;;;;121.63;70.18;;;;;;;;;;5036748;28;20441;-81
2022/03/25 04:42:11;;;;;;;117.22;67.10;;;;;;;;;;5039768;28;20848;-84
2022/03/25 04:44:37;;;;;;;110.13;65.60;;;;;;;;;;5036911;28;20438;-84
2022/03/25 04:47:03;;;;;;;114.60;64.35;;;;;;;;;;5036767;28;20409;-82
2022/03/25 04:49:30;;;;;;;115.10;65.03;;;;;;;;;;5039250;28;20820;-82
2022/03/25 04:51:56;;;;;;;111.30;65.00;;;;;;;;;;5039213;28;20842;-83
2022/03/25 04:54:22;;;;;;;115.18;66.40;;;;;;;;;;5038036;28;20931;-85
2022/03/25 04:56:50;;;;;;;112.88;64.20;;;;;;;;;;5041366;28;20470;-85
2022/03/25 04:59:16;;;;;;;113.82;67.60;;;;;;;;;;5040822;28;20429;-82
2022/03/25 05:01:42;;;;;;;115.40;65.05;;;;;;;;;;5040847;28;20425;-81
2022/03/25 05:04:09;;;;;;;113.70;66.60;;;;;;;;;;5041610;28;20440;-82
2022/03/25 05:06:35;;;;;;;110.47;64.82;;;;;;;;;;5046123;28;20441;-79
2022/03/25 05:09:01;;;;;;;120.45;66.53;;;;;;;;;;5057804;28;20426;-81
2022/03/25 05:11:28;;;;;;;114.15;64.32;;;;;;;;;;5043614;28;20464;-81
2022/03/25 05:13:56;;;;;;;117.40;66.25;;;;;;;;;;5036974;28;20797;-83
2022/03/25 05:16:22;;;;;;;105.63;62.92;;;;;;;;;;5038258;28;20499;-83
2022/03/25 05:18:48;;;;;;;114.65;65.82;;;;;;;;;;5038747;28;20482;-79
2022/03/25 05:21:14;;;;;;;112.32;64.07;;;;;;;;;;5038565;28;20442;-82
2022/03/25 05:23:41;;;;;;;108.97;63.67;;;;;;;;;;5037815;28;20822;-83
2022/03/25 05:26:07;;;;;;;109.72;62.30;;;;;;;;;;5036550;28;20449;-82
2022/03/25 05:28:34;;;;;;;107.18;61.78;;;;;;;;;;5026252;28;20422;-84
2022/03/25 05:31:02;;;;;;;107.90;61.65;;;;;;;;;;5031101;28;20426;-80
2022/03/25 05:33:29;;;;;;;106.00;60.93;;;;;;;;;;5036626;28;20520;-81
2022/03/25 05:35:55;;;;;;;108.47;60.88;;;;;;;;;;5035968;28;20481;-82
2022/03/25 05:38:21;;;;;;;120.95;67.63;;;;;;;;;;5034693;28;20421;-80
2022/03/25 05:40:48;;;;;;;117.68;66.25;;;;;;;;;;5038858;28;20428;-82
2022/03/25 05:43:14;;;;;;;119.35;66.75;;;;;;;;;;5037375;28;20435;-82
2022/03/25 05:45:41;;;;;;;115.50;66.97;;;;;;;;;;5037456;28;20518;-81
2022/03/25 05:48:08;;;;;;;116.82;66.15;;;;;;;;;;5040973;28;20420;-82
2022/03/25 05:50:35;;;;;;;125.55;70.63;;;;;;;;;;5038399;28;20490;-79
2022/03/25 05:53:01;;;;;;;121.10;67.57;;;;;;;;;;5037258;28;20426;-83
2022/03/25 05:55:27;;;;;;;114.85;67.65;;;;;;;;;;5038859;28;20803;-81
2022/03/25 05:57:54;;;;;;;119.00;68.57;;;;;;;;;;5030512;28;20459;-80
2022/03/25 06:00:20;;;;;;;118.18;67.80;;;;;;;;;;5038869;28;20462;-81
2022/03/25 06:02:46;;;;;;;116.88;67.60;;;;;;;;;;5037431;28;20427;-81
2022/03/25 06:05:14;;;;;;;103.40;62.60;;;;;;;;;;5040937;28;20443;-82
2022/03/25 06:07:41;;;;;;;118.38;68.00;;;;;;;;;;5038153;28;20423;-80
2022/03/25 06:10:08;;;;;;;124.88;70.50;;;;;;;;;;5040240;28;20804;-82
2022/03/25 06:12:34;;;;;;;126.03;70.07;;;;;;;;;;5036973;28;20505;-82
2022/03/25 06:15:01;;;;;;;124.00;70.18;;;;;;;;;;5039204;28;20433;-81
2022/03/25 06:17:27;;;;;;;117.25;67.30;;;;;;;;;;5040590;28;20425;-81
2022/03/25 06:19:53;;;;;;;117.25;66.97;;;;;;;;;;5035376;28;21023;-81
2022/03/25 06:22:24;;;;;;;122.97;67.30;;;;;;;;;;5039245;28;20417;-82
2022/03/25 06:24:50;;;;;;;127.28;70.55;;;;;;;;;;5039710;28;20909;-82
2022/03/25 06:27:16;;;;;;;121.20;68.25;;;;;;;;;;5039162;28;20419;-82
2022/03/25 06:29:42;;;;;;;126.50;70.10;;;;;;;;;;5038085;28;20434;-83
2022/03/25 06:32:09;;;;;;;128.73;73.03;;;;;;;;;;5035237;28;20428;-82
2022/03/25 06:34:35;;;;;;;126.10;71.95;;;;;;;;;;5037449;28;20480;-82
2022/03/25 06:37:02;;;;;;;130.30;74.13;;;;;;;;;;5036209;28;20435;-80
2022/03/25 06:39:30;;;;;;;125.50;73.72;;;;;;;;;;5039346;28;20458;-83
2022/03/25 06:41:56;;;;;;;145.15;81.13;;;;;;;;;;5036756;28;20431;-83
2022/03/25 06:44:23;;;;;;;153.73;84.10;;;;;;;;;;5036878;28;20453;-81
2022/03/25 06:46:49;;;;;;;148.85;83.70;;;;;;;;;;5033676;28;20409;-82
2022/03/25 06:49:15;;;;;;;167.23;89.70;;;;;;;;;;5039642;28;20498;-83
2022/03/25 06:51:42;;;;;;;162.30;91.47;;;;;;;;;;5037149;28;20438;-82
2022/03/25 06:54:08;;;;;;;166.13;94.00;;;;;;;;;;5041188;28;20423;-82
2022/03/25 06:56:36;;;;;;;163.60;88.97;;;;;;;;;;5041176;28;20413;-82
2022/03/25 06:59:03;;;;;;;161.02;90.95;;;;;;;;;;5040964;28;20457;-82
2022/03/25 07:01:31;;;;;;;185.75;94.57;;;;;;;;;;5038675;28;20859;-82
2022/03/25 07:03:57;;;;;;;176.23;95.10;;;;;;;;;;5040518;28;20422;-82
2022/03/25 07:06:24;;;;;;;188.80;98.15;;;;;;;;;;5042038;28;20828;-82
2022/03/25 07:08:53;;;;;;;188.00;98.95;;;;;;;;;;5036348;28;20480;-81
2022/03/25 07:11:19;;;;;;;204.52;111.00;;;;;;;;;;5040608;28;20497;-83
2022/03/25 07:13:48;;;;;;;211.27;114.33;;;;;;;;;;5039095;28;20422;-82
2022/03/25 07:16:14;;;;;;;191.38;109.43;;;;;;;;;;5040778;28;20423;-83
2022/03/25 07:18:40;;;;;;;188.57;107.10;;;;;;;;;;5039641;28;20522;-83
2022/03/25 07:21:07;;;;;;;189.70;109.35;;;;;;;;;;5042458;28;20438;-82
2022/03/25 07:23:33;;;;;;;181.63;104.00;;;;;;;;;;5041215;28;20457;-82
2022/03/25 07:26:00;;;;;;;182.95;105.80;;;;;;;;;;5042131;28;20421;-83
2022/03/25 07:28:26;;;;;;;170.32;101.90;;;;;;;;;;5038493;28;20419;-82
2022/03/25 07:30:54;;;;;;;170.57;100.30;;;;;;;;;;5039557;28;20445;-82
2022/03/25 07:33:20;;;;;;;167.05;100.63;;;;;;;;;;5041214;28;20419;-82
2022/03/25 07:35:46;;;;;;;170.55;102.07;;;;;;;;;;5041837;28;20424;-81
2022/03/25 07:38:13;;;;;;;168.43;102.18;;;;;;;;;;5040849;28;20481;-81
2022/03/25 07:40:39;;;;;;;159.52;98.90;;;;;;;;;;5042556;28;20429;-81
2022/03/25 07:43:05;;;;;;;159.23;99.40;;;;;;;;;;5036445;28;20427;-82
2022/03/25 07:45:31;;;;;;;155.95;97.38;;;;;;;;;;5039898;28;20409;-82
2022/03/25 07:47:59;;;;;;;157.70;97.85;;;;;;;;;;5037667;28;20424;-80
2022/03/25 07:50:25;;;;;;;160.98;96.88;;;;;;;;;;5039254;28;20493;-82
2022/03/25 07:52:52;;;;;;;153.88;94.53;;;;;;;;;;5038745;28;20421;-82
2022/03/25 07:55:19;;;;;;;148.98;95.63;;;;;;;;;;5040733;28;20496;-82
2022/03/25 07:57:46;;;;;;;158.10;100.57;;;;;;;;;;5038182;28;20514;-82
2022/03/25 08:00:13;;;;;;;154.70;98.20;;;;;;;;;;5036580;28;20516;-79
2022/03/25 08:02:40;;;;;;;158.18;99.28;;;;;;;;;;5036618;28;20491;-82
2022/03/25 08:05:09;;;;;;;146.47;97.23;;;;;;;;;;5036112;28;20431;-82
2022/03/25 08:07:40;;;;;;;136.90;89.70;;;;;;;;;;5039046;28;20523;-82
2022/03/25 08:10:06;;;;;;;143.63;91.22;;;;;;;;;;5037628;28;20434;-82
2022/03/25 08:12:32;;;;;;;135.65;89.32;;;;;;;;;;5038959;28;20467;-80
2022/03/25 08:14:59;;;;;;;141.70;90.57;;;;;;;;;;5039830;28;20409;-82
2022/03/25 08:17:25;;;;;;;138.48;91.40;;;;;;;;;;5037967;28;20429;-78
2022/03/25 08:19:51;;;;;;;142.73;87.55;;;;;;;;;;5034030;28;20817;-81
2022/03/25 08:22:19;;;;;;;132.38;86.60;;;;;;;;;;5037409;28;20975;-81
2022/03/25 08:30:13;;;;;;;117.13;79.75;;;;;;;;;;5040700;28;20422;-81
2022/03/25 08:32:39;;;;;;;113.68;80.90;;;;;;;;;;5041262;28;20448;-81
2022/03/25 08:35:07;;;;;;;109.43;76.00;;;;;;;;;;5041906;28;20429;-82
2022/03/25 08:37:35;;;;;;;107.88;74.35;;;;;;;;;;5041214;28;20421;-81
2022/03/25 08:40:03;;;;;;;105.43;73.67;;;;;;;;;;5038403;28;20484;-83
2022/03/25 08:42:29;;;;;;;102.60;74.13;;;;;;;;;;5043630;28;20418;-84
2022/03/25 08:44:55;;;;;;;108.13;72.28;;;;;;;;;;5042616;28;20758;-83
2022/03/25 08:47:22;;;;;;;104.68;72.10;;;;;;;;;;5043339;28;20836;-83
2022/03/25 08:49:48;;;;;;;106.70;74.97;;;;;;;;;;5054789;22;20568;-80
2022/03/25 08:52:14;;;;;;;108.15;72.13;;;;;;;;;;5017067;28;20417;-79
2022/03/25 08:54:42;;;;;;;104.23;70.13;;;;;;;;;;5015140;28;20412;-80
2022/03/25 08:57:08;;;;;;;101.68;69.00;;;;;;;;;;5016700;28;20409;-81
2022/03/25 08:59:35;;;;;;;97.35;66.45;;;;;;;;;;5025938;28;20488;-81
2022/03/25 09:02:02;;;;;;;89.67;61.50;;;;;;;;;;5036090;28;20412;-81
2022/03/25 09:04:30;;;;;;;88.05;62.17;;;;;;;;;;5034279;28;20444;-81
2022/03/25 09:06:56;;;;;;;84.77;60.50;;;;;;;;;;5036510;28;20416;-80
2022/03/25 09:09:22;;;;;;;93.93;63.22;;;;;;;;;;5035741;28;20836;-81
2022/03/25 09:11:50;;;;;;;81.90;56.90;;;;;;;;;;5034899;28;20411;-80
2022/03/25 09:14:17;;;;;;;84.78;59.03;;;;;;;;;;5035878;28;20445;-81
2022/03/25 09:16:44;;;;;;;84.40;58.30;;;;;;;;;;5035471;28;20450;-81
2022/03/25 09:19:10;;;;;;;83.82;58.15;;;;;;;;;;5035752;28;20460;-81
2022/03/25 09:21:36;;;;;;;85.18;57.60;;;;;;;;;;5034114;28;20465;-81
2022/03/25 09:24:03;;;;;;;80.78;57.13;;;;;;;;;;5030949;28;20490;-81
2022/03/25 09:26:29;;;;;;;83.75;56.38;;;;;;;;;;5031414;28;20420;-81
2022/03/25 09:28:57;;;;;;;89.35;61.53;;;;;;;;;;5030193;28;20408;-81
2022/03/25 09:31:23;;;;;;;84.82;59.60;;;;;;;;;;5032223;28;20418;-81
2022/03/25 09:33:49;;;;;;;88.53;62.55;;;;;;;;;;5028334;28;20428;-79
2022/03/25 09:36:15;;;;;;;90.25;62.50;;;;;;;;;;5030108;28;20433;-81
2022/03/25 09:38:42;;;;;;;91.32;62.72;;;;;;;;;;5030148;28;20486;-79
2022/03/25 09:41:08;;;;;;;89.05;62.38;;;;;;;;;;5027685;28;20812;-81
2022/03/25 09:43:36;;;;;;;85.90;61.08;;;;;;;;;;5029713;28;20420;-81
2022/03/25 09:46:04;;;;;;;89.03;59.75;;;;;;;;;;5031502;28;20487;-81
2022/03/25 09:48:30;;;;;;;92.05;61.05;;;;;;;;;;5028741;28;20417;-80
2022/03/25 09:50:57;;;;;;;84.90;61.83;;;;;;;;;;5030442;28;20439;-81
2022/03/25 09:53:28;;;;;;;90.85;63.35;;;;;;;;;;5028483;28;20425;-80
2022/03/25 09:55:54;;;;;;;83.13;60.78;;;;;;;;;;5029635;28;20471;-80
2022/03/25 09:58:22;;;;;;;86.88;60.88;;;;;;;;;;5026342;28;20483;-81
2022/03/25 10:00:49;;;;;;;90.03;62.00;;;;;;;;;;5029133;28;20458;-81
2022/03/25 10:03:22;;;;;;;87.95;63.97;;;;;;;;;;5027150;28;20846;-81
2022/03/25 10:05:55;;;;;;;90.53;64.15;;;;;;;;;;5027644;28;20476;-81
2022/03/25 10:08:28;;;;;;;92.93;65.30;;;;;;;;;;5026113;28;20418;-80
2022/03/25 10:10:55;;;;;;;95.20;65.10;;;;;;;;;;5028839;28;20489;-81
2022/03/25 10:13:21;;;;;;;90.03;64.90;;;;;;;;;;5029997;28;20454;-81
2022/03/25 10:15:47;;;;;;;85.80;60.67;;;;;;;;;;5028205;28;20445;-81
2022/03/25 10:18:14;;;;;;;91.50;65.00;;;;;;;;;;5027878;28;20984;-80
2022/03/25 10:20:42;;;;;;;80.47;55.30;;;;;;;;;;5029207;28;20972;-81
2022/03/25 10:23:10;;;;;;;72.93;52.42;;;;;;;;;;5027611;28;20420;-81
2022/03/25 10:25:38;;;;;;;73.40;51.03;;;;;;;;;;5028304;28;20419;-81
2022/03/25 10:28:05;;;;;;;74.93;51.60;;;;;;;;;;5027714;28;20423;-81
2022/03/25 10:30:36;;;;;;;74.72;52.15;;;;;;;;;;5026702;28;20471;-81
2022/03/25 10:33:07;;;;;;;78.53;55.80;;;;;;;;;;5027565;28;20468;-81
2022/03/25 10:35:34;;;;;;;81.43;59.28;;;;;;;;;;5028644;28;20421;-81
2022/03/25 10:38:01;;;;;;;85.80;59.30;;;;;;;;;;5026413;28;20452;-81
2022/03/25 10:40:28;;;;;;;87.32;60.45;;;;;;;;;;5026748;28;20836;-80
2022/03/25 10:43:03;;;;;;;84.88;60.33;;;;;;;;;;5027278;28;20421;-81
2022/03/25 10:45:30;;;;;;;79.80;58.57;;;;;;;;;;5027561;28;20438;-81
2022/03/25 10:48:10;;;;;;;81.75;60.08;;;;;;;;;;5027731;28;20424;-81
2022/03/25 10:50:54;;;;;;;82.20;61.50;;;;;;;;;;5020982;28;20423;-81
2022/03/25 10:53:23;;;;;;;83.80;59.50;;;;;;;;;;5019474;28;21049;-81
2022/03/25 10:55:53;;;;;;;82.97;60.90;;;;;;;;;;5020766;28;20408;-82
2022/03/25 10:58:19;;;;;;;80.28;59.25;;;;;;;;;;5020254;28;20508;-81
2022/03/25 11:00:45;;;;;;;84.50;60.95;;;;;;;;;;5022468;28;20437;-81
2022/03/25 11:03:14;;;;;;;76.32;55.63;;;;;;;;;;5019376;28;20433;-81
2022/03/25 11:05:40;;;;;;;85.78;60.90;;;;;;;;;;5020561;28;20838;-81
2022/03/25 11:08:07;;;;;;;85.43;57.60;;;;;;;;;;5019337;28;20427;-81
2022/03/25 11:10:35;;;;;;;78.10;58.25;;;;;;;;;;5019251;28;20417;-82
2022/03/25 11:13:03;;;;;;;77.75;57.53;;;;;;;;;;5020771;28;20927;-81
2022/03/25 11:15:31;;;;;;;72.53;53.78;;;;;;;;;;5021658;28;20431;-82
2022/03/25 11:17:57;;;;;;;69.85;50.92;;;;;;;;;;5020568;28;20905;-81
2022/03/25 11:20:25;;;;;;;64.53;48.72;;;;;;;;;;5020147;28;20932;-82
2022/03/25 11:22:54;;;;;;;72.57;50.95;;;;;;;;;;5018691;28;20430;-81
2022/03/25 11:25:21;;;;;;;71.53;48.88;;;;;;;;;;5021236;28;20503;-81
2022/03/25 11:27:53;;;;;;;69.18;47.40;;;;;;;;;;5021545;28;20504;-81
2022/03/25 11:30:20;;;;;;;65.75;47.42;;;;;;;;;;5018268;28;20945;-81
2022/03/25 11:32:50;;;;;;;61.17;47.30;;;;;;;;;;5021749;28;20423;-81
2022/03/25 11:35:16;;;;;;;67.35;50.72;;;;;;;;;;5020667;28;20416;-82
2022/03/25 11:37:43;;;;;;;66.68;45.00;;;;;;;;;;5021980;28;20429;-82
2022/03/25 11:40:27;;;;;;;65.30;44.40;;;;;;;;;;5019582;28;20902;-81
2022/03/25 11:42:56;;;;;;;67.30;45.55;;;;;;;;;;5019466;28;20781;-81
2022/03/25 11:45:35;;;;;;;60.97;42.63;;;;;;;;;;5020048;28;20444;-82
2022/03/25 11:48:19;;;;;;;58.78;44.50;;;;;;;;;;5019843;28;20421;-80
2022/03/25 11:50:46;;;;;;;58.55;42.45;;;;;;;;;;5018457;28;20440;-81
2022/03/25 11:53:33;;;;;;;52.60;38.85;;;;;;;;;;5017926;28;20434;-81
2022/03/25 11:56:01;;;;;;;55.10;38.45;;;;;;;;;;5017406;28;20445;-82
2022/03/25 11:58:29;;;;;;;53.90;39.13;;;;;;;;;;5019403;28;20420;-81
2022/03/25 12:00:59;;;;;;;53.58;38.75;;;;;;;;;;5019771;28;20428;-82
2022/03/25 12:03:40;;;;;;;50.70;37.90;;;;;;;;;;5018422;28;21005;-82
2022/03/25 12:06:07;;;;;;;49.50;34.97;;;;;;;;;;5023263;28;20490;-82
2022/03/25 12:08:35;;;;;;;44.80;30.88;;;;;;;;;;5024161;28;20911;-80
2022/03/25 12:11:02;;;;;;;41.95;30.08;;;;;;;;;;5025443;28;20473;-83
2022/03/25 12:13:47;;;;;;;49.13;29.43;;;;;;;;;;5023910;28;20447;-82
2022/03/25 12:16:35;;;;;;;43.70;28.03;;;;;;;;;;5027160;28;20406;-81
2022/03/25 12:19:01;;;;;;;43.47;30.23;;;;;;;;;;5024496;28;20417;-82
2022/03/25 12:21:43;;;;;;;41.88;28.70;;;;;;;;;;5023578;28;20428;-82
2022/03/25 12:24:12;;;;;;;37.25;25.80;;;;;;;;;;5025584;28;20972;-82
2022/03/25 12:26:39;;;;;;;39.97;27.38;;;;;;;;;;5026173;28;20465;-81
2022/03/25 12:29:07;;;;;;;34.55;23.88;;;;;;;;;;5028587;28;20411;-82
2022/03/25 12:31:34;;;;;;;31.30;20.92;;;;;;;;;;5025653;28;20893;-82
2022/03/25 12:34:02;;;;;;;30.00;19.45;;;;;;;;;;5026490;28;20439;-82
2022/03/25 12:36:32;;;;;;;29.15;19.77;;;;;;;;;;5026808;28;20445;-81
2022/03/25 12:38:58;;;;;;;25.50;19.02;;;;;;;;;;5025344;28;20422;-82
2022/03/25 12:41:25;;;;;;;28.65;18.50;;;;;;;;;;5029160;28;20422;-82
2022/03/25 12:43:56;;;;;;;31.35;21.35;;;;;;;;;;5026668;28;20829;-82
2022/03/25 12:46:24;;;;;;;28.88;20.40;;;;;;;;;;5031093;28;20419;-82
2022/03/25 12:48:52;;;;;;;23.00;16.80;;;;;;;;;;5024652;28;20425;-81
2022/03/25 12:51:21;;;;;;;23.85;16.70;;;;;;;;;;5029015;28;20411;-82
2022/03/25 12:53:48;;;;;;;24.53;18.03;;;;;;;;;;5026326;28;20427;-81
2022/03/25 12:56:15;;;;;;;24.10;16.30;;;;;;;;;;5027520;28;20433;-82
2022/03/25 12:58:42;;;;;;;24.20;17.23;;;;;;;;;;5027807;28;20432;-81
2022/03/25 13:01:14;;;;;;;27.08;17.77;;;;;;;;;;5032970;28;20432;-82
2022/03/25 13:03:43;;;;;;;27.20;18.40;;;;;;;;;;5031291;28;20443;-82
2022/03/25 13:06:14;;;;;;;25.45;17.80;;;;;;;;;;5030060;28;20528;-82
2022/03/25 13:08:40;;;;;;;23.73;17.85;;;;;;;;;;5026663;28;20419;-82
2022/03/25 13:11:07;;;;;;;29.42;17.73;;;;;;;;;;5030039;28;20407;-82
2022/03/25 13:13:38;;;;;;;27.00;17.63;;;;;;;;;;5029931;28;20433;-82
2022/03/25 13:16:04;;;;;;;21.90;14.93;;;;;;;;;;5034008;28;20427;-82
2022/03/25 13:18:32;;;;;;;19.77;13.75;;;;;;;;;;5035641;28;20782;-80
2022/03/25 13:20:59;;;;;;;22.60;13.87;;;;;;;;;;5035521;28;20424;-82
2022/03/25 13:23:28;;;;;;;26.05;16.08;;;;;;;;;;5032067;28;20739;-82
2022/03/25 13:25:55;;;;;;;23.83;15.77;;;;;;;;;;5035340;28;20470;-82
2022/03/25 13:28:24;;;;;;;22.50;16.13;;;;;;;;;;5033817;28;20423;-82
2022/03/25 13:30:51;;;;;;;27.60;17.35;;;;;;;;;;5036437;28;20409;-82
2022/03/25 13:33:18;;;;;;;25.75;16.80;;;;;;;;;;5035603;28;20417;-82
2022/03/25 13:35:45;;;;;;;26.37;17.73;;;;;;;;;;5036053;28;20411;-81
2022/03/25 13:38:13;;;;;;;21.88;14.93;;;;;;;;;;5029973;28;20436;-82
2022/03/25 13:40:42;;;;;;;28.35;20.00;;;;;;;;;;5033534;28;20432;-82
2022/03/25 13:43:08;;;;;;;27.30;18.23;;;;;;;;;;5033810;28;20419;-82
2022/03/25 13:45:35;;;;;;;30.95;21.50;;;;;;;;;;5024075;28;20439;-82
2022/03/25 13:48:02;;;;;;;34.75;23.88;;;;;;;;;;5020936;28;20432;-81
2022/03/25 13:50:29;;;;;;;36.05;25.70;;;;;;;;;;5022229;28;20421;-82
2022/03/25 13:52:56;;;;;;;36.00;25.88;;;;;;;;;;5022597;28;21083;-81
2022/03/25 13:55:31;;;;;;;41.42;27.10;;;;;;;;;;5021253;28;20430;-82
2022/03/25 13:58:00;;;;;;;39.25;25.10;;;;;;;;;;5022719;28;20928;-82
2022/03/25 14:00:35;;;;;;;30.90;23.35;;;;;;;;;;5022531;28;20442;-82
2022/03/25 14:03:01;;;;;;;36.63;24.50;;;;;;;;;;5021692;28;20547;-83
2022/03/25 14:05:28;;;;;;;34.38;25.70;;;;;;;;;;5020497;28;20910;-82
2022/03/25 14:07:57;;;;;;;35.95;24.73;;;;;;;;;;5020467;28;20427;-82
2022/03/25 14:10:23;;;;;;;40.58;26.83;;;;;;;;;;5022774;28;20445;-82
2022/03/25 14:12:57;;;;;;;35.67;26.20;;;;;;;;;;5020438;28;20422;-82
2022/03/25 14:15:27;;;;;;;35.63;25.70;;;;;;;;;;5021196;28;20436;-82